sensor_id;sensor_type;location;lat;lon;timestamp;P1;durP1;ratioP1;P2;durP2;ratioP2
37267;SDS011;23154;52.542;13.362;2022-08-19T00:01:26;23.48;;;14.25;;
37267;SDS011;23154;52.542;13.362;2022-08-19T00:03:54;22.60;;;14.45;;
37267;SDS011;23154;52.542;13.362;2022-08-19T00:06:23;24.95;;;15.50;;
37267;SDS011;23154;52.542;13.362;2022-08-19T00:08:50;24.30;;;15.63;;
37267;SDS011;23154;52.542;13.362;2022-08-19T00:11:17;23.63;;;14.50;;
37267;SDS011;23154;52.542;13.362;2022-08-19T00:13:43;22.27;;;13.93;;
37267;SDS011;23154;52.542;13.362;2022-08-19T00:16:10;21.70;;;14.13;;
37267;SDS011;23154;52.542;13.362;2022-08-19T00:18:36;23.10;;;13.85;;
37267;SDS011;23154;52.542;13.362;2022-08-19T00:21:01;23.23;;;14.10;;
37267;SDS011;23154;52.542;13.362;2022-08-19T00:23:28;25.30;;;14.73;;
37267;SDS011;23154;52.542;13.362;2022-08-19T00:26:33;22.77;;;13.98;;
37267;SDS011;23154;52.542;13.362;2022-08-19T00:28:59;24.20;;;14.40;;
37267;SDS011;23154;52.542;13.362;2022-08-19T00:31:26;24.45;;;13.45;;
37267;SDS011;23154;52.542;13.362;2022-08-19T00:33:52;24.83;;;14.10;;
37267;SDS011;23154;52.542;13.362;2022-08-19T00:36:19;24.63;;;13.88;;
37267;SDS011;23154;52.542;13.362;2022-08-19T00:38:44;22.42;;;14.27;;
37267;SDS011;23154;52.542;13.362;2022-08-19T00:41:14;24.77;;;14.48;;
37267;SDS011;23154;52.542;13.362;2022-08-19T00:43:59;22.98;;;13.80;;
37267;SDS011;23154;52.542;13.362;2022-08-19T00:46:29;24.38;;;14.20;;
37267;SDS011;23154;52.542;13.362;2022-08-19T00:48:57;25.27;;;14.98;;
37267;SDS011;23154;52.542;13.362;2022-08-19T00:51:24;21.77;;;14.10;;
37267;SDS011;23154;52.542;13.362;2022-08-19T00:53:52;22.90;;;14.05;;
37267;SDS011;23154;52.542;13.362;2022-08-19T00:56:20;24.02;;;14.20;;
37267;SDS011;23154;52.542;13.362;2022-08-19T00:58:45;23.20;;;14.43;;
37267;SDS011;23154;52.542;13.362;2022-08-19T01:01:11;26.58;;;15.57;;
37267;SDS011;23154;52.542;13.362;2022-08-19T01:03:38;26.88;;;15.13;;
37267;SDS011;23154;52.542;13.362;2022-08-19T01:06:04;23.27;;;15.73;;
37267;SDS011;23154;52.542;13.362;2022-08-19T01:08:30;24.60;;;16.33;;
37267;SDS011;23154;52.542;13.362;2022-08-19T01:10:56;24.42;;;16.35;;
37267;SDS011;23154;52.542;13.362;2022-08-19T01:13:25;28.48;;;16.70;;
37267;SDS011;23154;52.542;13.362;2022-08-19T01:16:01;24.75;;;15.85;;
37267;SDS011;23154;52.542;13.362;2022-08-19T01:18:32;24.10;;;15.88;;
37267;SDS011;23154;52.542;13.362;2022-08-19T01:21:02;26.40;;;16.40;;
37267;SDS011;23154;52.542;13.362;2022-08-19T01:23:34;25.40;;;17.10;;
37267;SDS011;23154;52.542;13.362;2022-08-19T01:26:12;24.35;;;15.52;;
37267;SDS011;23154;52.542;13.362;2022-08-19T01:28:41;29.35;;;18.02;;
37267;SDS011;23154;52.542;13.362;2022-08-19T01:31:09;31.27;;;20.70;;
37267;SDS011;23154;52.542;13.362;2022-08-19T01:33:38;27.80;;;20.63;;
37267;SDS011;23154;52.542;13.362;2022-08-19T01:36:08;27.38;;;20.05;;
37267;SDS011;23154;52.542;13.362;2022-08-19T01:38:38;27.83;;;18.63;;
37267;SDS011;23154;52.542;13.362;2022-08-19T01:41:07;27.48;;;19.13;;
37267;SDS011;23154;52.542;13.362;2022-08-19T01:43:34;25.05;;;18.00;;
37267;SDS011;23154;52.542;13.362;2022-08-19T01:45:59;25.55;;;18.35;;
37267;SDS011;23154;52.542;13.362;2022-08-19T01:48:25;28.63;;;20.00;;
37267;SDS011;23154;52.542;13.362;2022-08-19T01:50:57;28.63;;;18.88;;
37267;SDS011;23154;52.542;13.362;2022-08-19T01:53:23;27.27;;;18.27;;
37267;SDS011;23154;52.542;13.362;2022-08-19T01:55:48;28.10;;;19.77;;
37267;SDS011;23154;52.542;13.362;2022-08-19T01:58:24;33.08;;;20.88;;
37267;SDS011;23154;52.542;13.362;2022-08-19T02:00:55;36.10;;;23.98;;
37267;SDS011;23154;52.542;13.362;2022-08-19T02:03:21;32.83;;;24.02;;
37267;SDS011;23154;52.542;13.362;2022-08-19T02:05:47;34.17;;;23.45;;
37267;SDS011;23154;52.542;13.362;2022-08-19T02:08:19;53.42;;;26.48;;
37267;SDS011;23154;52.542;13.362;2022-08-19T02:10:44;44.58;;;26.23;;
37267;SDS011;23154;52.542;13.362;2022-08-19T02:13:12;48.25;;;30.92;;
37267;SDS011;23154;52.542;13.362;2022-08-19T02:15:38;46.30;;;32.10;;
37267;SDS011;23154;52.542;13.362;2022-08-19T02:18:04;41.47;;;28.02;;
37267;SDS011;23154;52.542;13.362;2022-08-19T02:20:31;34.10;;;24.52;;
37267;SDS011;23154;52.542;13.362;2022-08-19T02:22:56;36.75;;;26.73;;
37267;SDS011;23154;52.542;13.362;2022-08-19T02:25:22;36.13;;;25.45;;
37267;SDS011;23154;52.542;13.362;2022-08-19T02:27:48;41.45;;;28.00;;
37267;SDS011;23154;52.542;13.362;2022-08-19T02:30:14;37.88;;;27.25;;
37267;SDS011;23154;52.542;13.362;2022-08-19T02:32:41;40.15;;;26.15;;
37267;SDS011;23154;52.542;13.362;2022-08-19T02:35:08;38.55;;;26.30;;
37267;SDS011;23154;52.542;13.362;2022-08-19T02:37:34;36.63;;;26.98;;
37267;SDS011;23154;52.542;13.362;2022-08-19T02:40:18;41.00;;;27.85;;
37267;SDS011;23154;52.542;13.362;2022-08-19T02:42:44;37.88;;;26.33;;
37267;SDS011;23154;52.542;13.362;2022-08-19T02:45:11;36.88;;;26.52;;
37267;SDS011;23154;52.542;13.362;2022-08-19T02:47:39;35.72;;;25.40;;
37267;SDS011;23154;52.542;13.362;2022-08-19T02:50:05;36.08;;;25.48;;
37267;SDS011;23154;52.542;13.362;2022-08-19T02:52:32;38.58;;;27.33;;
37267;SDS011;23154;52.542;13.362;2022-08-19T02:54:59;38.33;;;28.20;;
37267;SDS011;23154;52.542;13.362;2022-08-19T02:57:25;40.25;;;28.88;;
37267;SDS011;23154;52.542;13.362;2022-08-19T02:59:51;37.65;;;27.80;;
37267;SDS011;23154;52.542;13.362;2022-08-19T03:02:18;43.33;;;30.42;;
37267;SDS011;23154;52.542;13.362;2022-08-19T03:04:44;36.72;;;27.38;;
37267;SDS011;23154;52.542;13.362;2022-08-19T03:07:12;41.53;;;28.33;;
37267;SDS011;23154;52.542;13.362;2022-08-19T03:09:39;41.33;;;29.40;;
37267;SDS011;23154;52.542;13.362;2022-08-19T03:12:07;40.28;;;28.08;;
37267;SDS011;23154;52.542;13.362;2022-08-19T03:14:33;40.03;;;29.25;;
37267;SDS011;23154;52.542;13.362;2022-08-19T03:16:59;41.58;;;29.42;;
37267;SDS011;23154;52.542;13.362;2022-08-19T03:19:25;43.83;;;30.67;;
37267;SDS011;23154;52.542;13.362;2022-08-19T03:21:52;46.55;;;32.53;;
37267;SDS011;23154;52.542;13.362;2022-08-19T03:24:18;43.28;;;30.92;;
37267;SDS011;23154;52.542;13.362;2022-08-19T03:26:46;43.53;;;31.20;;
37267;SDS011;23154;52.542;13.362;2022-08-19T03:29:14;45.45;;;30.95;;
37267;SDS011;23154;52.542;13.362;2022-08-19T03:31:41;42.35;;;30.67;;
37267;SDS011;23154;52.542;13.362;2022-08-19T03:34:08;44.65;;;32.15;;
37267;SDS011;23154;52.542;13.362;2022-08-19T03:36:36;43.45;;;30.92;;
37267;SDS011;23154;52.542;13.362;2022-08-19T03:39:03;42.10;;;30.13;;
37267;SDS011;23154;52.542;13.362;2022-08-19T03:41:32;44.13;;;30.65;;
37267;SDS011;23154;52.542;13.362;2022-08-19T03:44:05;44.50;;;30.83;;
37267;SDS011;23154;52.542;13.362;2022-08-19T03:46:32;41.30;;;29.95;;
37267;SDS011;23154;52.542;13.362;2022-08-19T03:48:59;42.30;;;31.05;;
37267;SDS011;23154;52.542;13.362;2022-08-19T03:51:30;40.97;;;29.48;;
37267;SDS011;23154;52.542;13.362;2022-08-19T03:53:58;41.67;;;30.10;;
37267;SDS011;23154;52.542;13.362;2022-08-19T03:56:26;43.25;;;30.48;;
37267;SDS011;23154;52.542;13.362;2022-08-19T03:58:52;43.38;;;32.45;;
37267;SDS011;23154;52.542;13.362;2022-08-19T04:01:20;44.00;;;33.20;;
37267;SDS011;23154;52.542;13.362;2022-08-19T04:03:46;41.38;;;31.10;;
37267;SDS011;23154;52.542;13.362;2022-08-19T04:06:13;40.55;;;29.80;;
37267;SDS011;23154;52.542;13.362;2022-08-19T04:08:50;40.40;;;30.05;;
37267;SDS011;23154;52.542;13.362;2022-08-19T04:11:19;39.95;;;31.10;;
37267;SDS011;23154;52.542;13.362;2022-08-19T04:13:47;39.60;;;29.67;;
37267;SDS011;23154;52.542;13.362;2022-08-19T04:16:13;39.08;;;29.08;;
37267;SDS011;23154;52.542;13.362;2022-08-19T04:18:39;41.13;;;30.02;;
37267;SDS011;23154;52.542;13.362;2022-08-19T04:21:06;38.80;;;28.27;;
37267;SDS011;23154;52.542;13.362;2022-08-19T04:23:32;39.42;;;28.75;;
37267;SDS011;23154;52.542;13.362;2022-08-19T04:25:58;39.03;;;29.10;;
37267;SDS011;23154;52.542;13.362;2022-08-19T04:28:24;38.00;;;28.27;;
37267;SDS011;23154;52.542;13.362;2022-08-19T04:30:51;39.53;;;31.63;;
37267;SDS011;23154;52.542;13.362;2022-08-19T04:33:19;36.97;;;28.60;;
37267;SDS011;23154;52.542;13.362;2022-08-19T04:35:47;35.43;;;27.83;;
37267;SDS011;23154;52.542;13.362;2022-08-19T04:38:16;32.78;;;24.30;;
37267;SDS011;23154;52.542;13.362;2022-08-19T04:40:44;35.30;;;26.48;;
37267;SDS011;23154;52.542;13.362;2022-08-19T04:43:30;33.45;;;25.23;;
37267;SDS011;23154;52.542;13.362;2022-08-19T04:45:56;33.80;;;24.70;;
37267;SDS011;23154;52.542;13.362;2022-08-19T04:48:22;34.60;;;25.63;;
37267;SDS011;23154;52.542;13.362;2022-08-19T04:50:57;33.65;;;22.73;;
37267;SDS011;23154;52.542;13.362;2022-08-19T04:53:33;31.45;;;22.48;;
37267;SDS011;23154;52.542;13.362;2022-08-19T04:56:03;30.83;;;21.30;;
37267;SDS011;23154;52.542;13.362;2022-08-19T04:58:32;33.67;;;23.40;;
37267;SDS011;23154;52.542;13.362;2022-08-19T05:00:59;33.00;;;21.77;;
37267;SDS011;23154;52.542;13.362;2022-08-19T05:03:25;33.63;;;23.95;;
37267;SDS011;23154;52.542;13.362;2022-08-19T05:05:51;33.45;;;24.83;;
37267;SDS011;23154;52.542;13.362;2022-08-19T05:08:18;35.53;;;26.55;;
37267;SDS011;23154;52.542;13.362;2022-08-19T05:10:47;32.58;;;24.80;;
37267;SDS011;23154;52.542;13.362;2022-08-19T05:13:15;34.10;;;25.15;;
37267;SDS011;23154;52.542;13.362;2022-08-19T05:15:43;32.13;;;24.00;;
37267;SDS011;23154;52.542;13.362;2022-08-19T05:18:08;35.22;;;25.83;;
37267;SDS011;23154;52.542;13.362;2022-08-19T05:20:53;32.15;;;23.48;;
37267;SDS011;23154;52.542;13.362;2022-08-19T05:23:37;34.83;;;22.80;;
37267;SDS011;23154;52.542;13.362;2022-08-19T05:26:04;35.28;;;24.65;;
37267;SDS011;23154;52.542;13.362;2022-08-19T05:28:30;33.05;;;23.20;;
37267;SDS011;23154;52.542;13.362;2022-08-19T05:30:55;29.80;;;22.52;;
37267;SDS011;23154;52.542;13.362;2022-08-19T05:33:21;30.85;;;22.13;;
37267;SDS011;23154;52.542;13.362;2022-08-19T05:35:49;33.17;;;23.50;;
37267;SDS011;23154;52.542;13.362;2022-08-19T05:38:18;29.80;;;21.55;;
37267;SDS011;23154;52.542;13.362;2022-08-19T05:40:44;31.48;;;22.20;;
37267;SDS011;23154;52.542;13.362;2022-08-19T05:43:12;27.52;;;20.50;;
37267;SDS011;23154;52.542;13.362;2022-08-19T05:45:40;28.20;;;20.65;;
37267;SDS011;23154;52.542;13.362;2022-08-19T05:48:07;29.92;;;20.65;;
37267;SDS011;23154;52.542;13.362;2022-08-19T05:50:35;28.95;;;22.02;;
37267;SDS011;23154;52.542;13.362;2022-08-19T05:53:01;31.00;;;22.13;;
37267;SDS011;23154;52.542;13.362;2022-08-19T05:55:27;27.63;;;19.23;;
37267;SDS011;23154;52.542;13.362;2022-08-19T05:57:53;26.00;;;18.50;;
37267;SDS011;23154;52.542;13.362;2022-08-19T06:00:18;31.98;;;18.98;;
37267;SDS011;23154;52.542;13.362;2022-08-19T06:02:44;28.95;;;20.42;;
37267;SDS011;23154;52.542;13.362;2022-08-19T06:05:10;29.35;;;19.80;;
37267;SDS011;23154;52.542;13.362;2022-08-19T06:07:36;29.55;;;19.92;;
37267;SDS011;23154;52.542;13.362;2022-08-19T06:10:06;32.70;;;18.98;;
37267;SDS011;23154;52.542;13.362;2022-08-19T06:15:00;26.75;;;18.55;;
37267;SDS011;23154;52.542;13.362;2022-08-19T06:17:35;31.40;;;20.08;;
37267;SDS011;23154;52.542;13.362;2022-08-19T06:20:01;28.58;;;18.45;;
37267;SDS011;23154;52.542;13.362;2022-08-19T06:22:37;25.40;;;18.67;;
37267;SDS011;23154;52.542;13.362;2022-08-19T06:25:04;29.60;;;20.13;;
37267;SDS011;23154;52.542;13.362;2022-08-19T06:27:31;26.13;;;18.48;;
37267;SDS011;23154;52.542;13.362;2022-08-19T06:29:58;27.88;;;18.40;;
37267;SDS011;23154;52.542;13.362;2022-08-19T06:32:23;29.58;;;19.15;;
37267;SDS011;23154;52.542;13.362;2022-08-19T06:34:49;26.30;;;18.73;;
37267;SDS011;23154;52.542;13.362;2022-08-19T06:37:15;28.60;;;19.63;;
37267;SDS011;23154;52.542;13.362;2022-08-19T06:39:41;26.08;;;18.40;;
37267;SDS011;23154;52.542;13.362;2022-08-19T06:42:09;29.33;;;20.05;;
37267;SDS011;23154;52.542;13.362;2022-08-19T06:44:40;29.02;;;18.33;;
37267;SDS011;23154;52.542;13.362;2022-08-19T06:47:08;26.55;;;19.30;;
37267;SDS011;23154;52.542;13.362;2022-08-19T06:49:35;27.00;;;18.80;;
37267;SDS011;23154;52.542;13.362;2022-08-19T06:52:02;28.38;;;19.00;;
37267;SDS011;23154;52.542;13.362;2022-08-19T06:54:30;27.30;;;19.27;;
37267;SDS011;23154;52.542;13.362;2022-08-19T06:56:57;27.50;;;19.30;;
37267;SDS011;23154;52.542;13.362;2022-08-19T06:59:26;29.23;;;20.55;;
37267;SDS011;23154;52.542;13.362;2022-08-19T07:01:54;28.73;;;19.38;;
37267;SDS011;23154;52.542;13.362;2022-08-19T07:04:22;27.65;;;19.30;;
37267;SDS011;23154;52.542;13.362;2022-08-19T07:06:50;29.60;;;19.58;;
37267;SDS011;23154;52.542;13.362;2022-08-19T07:09:26;27.77;;;20.40;;
37267;SDS011;23154;52.542;13.362;2022-08-19T07:11:53;31.17;;;20.52;;
37267;SDS011;23154;52.542;13.362;2022-08-19T07:14:21;27.33;;;18.75;;
37267;SDS011;23154;52.542;13.362;2022-08-19T07:16:50;25.08;;;19.02;;
37267;SDS011;23154;52.542;13.362;2022-08-19T07:19:17;28.00;;;19.83;;
37267;SDS011;23154;52.542;13.362;2022-08-19T07:21:45;28.98;;;20.27;;
37267;SDS011;23154;52.542;13.362;2022-08-19T07:24:12;26.35;;;19.67;;
37267;SDS011;23154;52.542;13.362;2022-08-19T07:26:40;29.60;;;19.05;;
37267;SDS011;23154;52.542;13.362;2022-08-19T07:29:07;29.87;;;20.17;;
37267;SDS011;23154;52.542;13.362;2022-08-19T07:31:34;25.95;;;18.73;;
37267;SDS011;23154;52.542;13.362;2022-08-19T07:34:03;28.10;;;19.13;;
37267;SDS011;23154;52.542;13.362;2022-08-19T07:36:32;29.08;;;19.65;;
37267;SDS011;23154;52.542;13.362;2022-08-19T07:39:00;29.33;;;19.70;;
37267;SDS011;23154;52.542;13.362;2022-08-19T07:41:28;27.92;;;19.50;;
37267;SDS011;23154;52.542;13.362;2022-08-19T07:43:56;27.25;;;19.10;;
37267;SDS011;23154;52.542;13.362;2022-08-19T07:46:24;26.83;;;18.27;;
37267;SDS011;23154;52.542;13.362;2022-08-19T07:48:51;30.13;;;19.55;;
37267;SDS011;23154;52.542;13.362;2022-08-19T07:51:18;30.67;;;19.20;;
37267;SDS011;23154;52.542;13.362;2022-08-19T07:53:46;26.48;;;19.27;;
37267;SDS011;23154;52.542;13.362;2022-08-19T07:56:15;29.52;;;20.42;;
37267;SDS011;23154;52.542;13.362;2022-08-19T07:58:43;29.88;;;20.15;;
37267;SDS011;23154;52.542;13.362;2022-08-19T08:01:12;27.73;;;18.60;;
37267;SDS011;23154;52.542;13.362;2022-08-19T08:03:40;28.25;;;19.50;;
37267;SDS011;23154;52.542;13.362;2022-08-19T08:06:25;27.00;;;19.25;;
37267;SDS011;23154;52.542;13.362;2022-08-19T08:09:09;28.63;;;19.35;;
37267;SDS011;23154;52.542;13.362;2022-08-19T08:11:37;27.60;;;18.70;;
37267;SDS011;23154;52.542;13.362;2022-08-19T08:14:04;29.25;;;20.13;;
37267;SDS011;23154;52.542;13.362;2022-08-19T08:16:37;27.80;;;20.08;;
37267;SDS011;23154;52.542;13.362;2022-08-19T08:19:04;27.75;;;20.17;;
37267;SDS011;23154;52.542;13.362;2022-08-19T08:21:30;27.92;;;19.95;;
37267;SDS011;23154;52.542;13.362;2022-08-19T08:23:59;34.40;;;21.85;;
37267;SDS011;23154;52.542;13.362;2022-08-19T08:26:25;28.75;;;20.27;;
37267;SDS011;23154;52.542;13.362;2022-08-19T08:28:52;27.92;;;20.20;;
37267;SDS011;23154;52.542;13.362;2022-08-19T08:31:19;32.33;;;19.55;;
37267;SDS011;23154;52.542;13.362;2022-08-19T08:33:49;28.00;;;20.42;;
37267;SDS011;23154;52.542;13.362;2022-08-19T08:36:15;29.60;;;20.05;;
37267;SDS011;23154;52.542;13.362;2022-08-19T08:38:41;29.08;;;20.27;;
37267;SDS011;23154;52.542;13.362;2022-08-19T08:41:18;27.37;;;20.33;;
37267;SDS011;23154;52.542;13.362;2022-08-19T08:43:49;28.02;;;20.38;;
37267;SDS011;23154;52.542;13.362;2022-08-19T08:46:21;30.20;;;21.23;;
37267;SDS011;23154;52.542;13.362;2022-08-19T08:51:42;30.95;;;20.00;;
37267;SDS011;23154;52.542;13.362;2022-08-19T08:54:13;31.85;;;20.48;;
37267;SDS011;23154;52.542;13.362;2022-08-19T08:56:43;31.50;;;21.40;;
37267;SDS011;23154;52.542;13.362;2022-08-19T09:01:58;31.23;;;21.60;;
37267;SDS011;23154;52.542;13.362;2022-08-19T09:04:29;27.88;;;20.77;;
37267;SDS011;23154;52.542;13.362;2022-08-19T09:09:49;28.67;;;20.65;;
37267;SDS011;23154;52.542;13.362;2022-08-19T09:15:09;26.63;;;19.58;;
37267;SDS011;23154;52.542;13.362;2022-08-19T09:17:36;26.67;;;19.35;;
37267;SDS011;23154;52.542;13.362;2022-08-19T09:22:34;28.27;;;18.95;;
37267;SDS011;23154;52.542;13.362;2022-08-19T09:25:01;26.95;;;18.80;;
37267;SDS011;23154;52.542;13.362;2022-08-19T09:27:28;28.27;;;18.27;;
37267;SDS011;23154;52.542;13.362;2022-08-19T09:29:54;28.85;;;18.80;;
37267;SDS011;23154;52.542;13.362;2022-08-19T09:32:20;24.48;;;18.23;;
37267;SDS011;23154;52.542;13.362;2022-08-19T09:34:47;26.48;;;17.13;;
37267;SDS011;23154;52.542;13.362;2022-08-19T09:37:13;27.60;;;18.20;;
37267;SDS011;23154;52.542;13.362;2022-08-19T09:39:39;28.52;;;17.27;;
37267;SDS011;23154;52.542;13.362;2022-08-19T09:42:07;23.73;;;16.58;;
37267;SDS011;23154;52.542;13.362;2022-08-19T09:44:39;25.95;;;16.70;;
37267;SDS011;23154;52.542;13.362;2022-08-19T09:47:05;25.77;;;16.48;;
37267;SDS011;23154;52.542;13.362;2022-08-19T09:49:32;23.65;;;16.58;;
37267;SDS011;23154;52.542;13.362;2022-08-19T09:51:58;27.48;;;17.35;;
37267;SDS011;23154;52.542;13.362;2022-08-19T09:54:24;25.30;;;16.40;;
37267;SDS011;23154;52.542;13.362;2022-08-19T09:56:51;25.50;;;16.48;;
37267;SDS011;23154;52.542;13.362;2022-08-19T09:59:19;26.45;;;17.08;;
37267;SDS011;23154;52.542;13.362;2022-08-19T10:01:44;22.48;;;15.02;;
37267;SDS011;23154;52.542;13.362;2022-08-19T10:04:10;23.13;;;16.25;;
37267;SDS011;23154;52.542;13.362;2022-08-19T10:06:36;25.52;;;15.70;;
37267;SDS011;23154;52.542;13.362;2022-08-19T10:09:05;26.50;;;15.02;;
37267;SDS011;23154;52.542;13.362;2022-08-19T10:11:33;23.00;;;15.63;;
37267;SDS011;23154;52.542;13.362;2022-08-19T10:14:00;23.70;;;15.38;;
37267;SDS011;23154;52.542;13.362;2022-08-19T10:16:26;24.90;;;15.98;;
37267;SDS011;23154;52.542;13.362;2022-08-19T10:18:52;24.60;;;15.30;;
37267;SDS011;23154;52.542;13.362;2022-08-19T10:21:23;25.58;;;14.80;;
37267;SDS011;23154;52.542;13.362;2022-08-19T10:23:52;23.83;;;14.77;;
37267;SDS011;23154;52.542;13.362;2022-08-19T10:26:21;25.13;;;15.98;;
37267;SDS011;23154;52.542;13.362;2022-08-19T10:28:48;25.15;;;16.30;;
37267;SDS011;23154;52.542;13.362;2022-08-19T10:31:18;24.30;;;15.90;;
37267;SDS011;23154;52.542;13.362;2022-08-19T10:33:48;24.00;;;15.43;;
37267;SDS011;23154;52.542;13.362;2022-08-19T10:36:23;26.35;;;16.02;;
37267;SDS011;23154;52.542;13.362;2022-08-19T10:38:52;26.50;;;16.17;;
37267;SDS011;23154;52.542;13.362;2022-08-19T10:41:23;26.45;;;15.68;;
37267;SDS011;23154;52.542;13.362;2022-08-19T10:43:52;24.65;;;16.42;;
37267;SDS011;23154;52.542;13.362;2022-08-19T10:46:20;27.40;;;16.05;;
37267;SDS011;23154;52.542;13.362;2022-08-19T10:48:49;25.02;;;16.35;;
37267;SDS011;23154;52.542;13.362;2022-08-19T10:51:16;26.55;;;15.75;;
37267;SDS011;23154;52.542;13.362;2022-08-19T10:54:02;25.67;;;16.75;;
37267;SDS011;23154;52.542;13.362;2022-08-19T10:56:29;24.90;;;16.73;;
37267;SDS011;23154;52.542;13.362;2022-08-19T10:59:15;31.55;;;16.08;;
37267;SDS011;23154;52.542;13.362;2022-08-19T11:01:45;25.67;;;15.88;;
37267;SDS011;23154;52.542;13.362;2022-08-19T11:04:12;26.83;;;16.85;;
37267;SDS011;23154;52.542;13.362;2022-08-19T11:06:42;28.27;;;16.40;;
37267;SDS011;23154;52.542;13.362;2022-08-19T11:09:10;25.23;;;16.05;;
37267;SDS011;23154;52.542;13.362;2022-08-19T11:11:36;25.60;;;16.00;;
37267;SDS011;23154;52.542;13.362;2022-08-19T11:14:09;25.80;;;15.95;;
37267;SDS011;23154;52.542;13.362;2022-08-19T11:16:37;25.10;;;14.95;;
37267;SDS011;23154;52.542;13.362;2022-08-19T11:19:04;25.23;;;15.65;;
37267;SDS011;23154;52.542;13.362;2022-08-19T11:21:33;23.92;;;16.23;;
37267;SDS011;23154;52.542;13.362;2022-08-19T11:24:02;24.67;;;15.73;;
37267;SDS011;23154;52.542;13.362;2022-08-19T11:28:57;23.90;;;14.52;;
37267;SDS011;23154;52.542;13.362;2022-08-19T11:31:28;24.67;;;14.63;;
37267;SDS011;23154;52.542;13.362;2022-08-19T11:33:56;25.02;;;14.32;;
37267;SDS011;23154;52.542;13.362;2022-08-19T11:36:24;23.38;;;13.90;;
37267;SDS011;23154;52.542;13.362;2022-08-19T11:38:51;22.55;;;13.95;;
37267;SDS011;23154;52.542;13.362;2022-08-19T11:41:19;25.65;;;13.77;;
37267;SDS011;23154;52.542;13.362;2022-08-19T11:43:47;22.92;;;13.65;;
37267;SDS011;23154;52.542;13.362;2022-08-19T11:46:14;24.67;;;14.32;;
37267;SDS011;23154;52.542;13.362;2022-08-19T11:48:40;22.38;;;13.63;;
37267;SDS011;23154;52.542;13.362;2022-08-19T11:51:08;23.05;;;13.13;;
37267;SDS011;23154;52.542;13.362;2022-08-19T11:53:36;24.90;;;14.33;;
37267;SDS011;23154;52.542;13.362;2022-08-19T11:56:03;20.65;;;12.90;;
37267;SDS011;23154;52.542;13.362;2022-08-19T11:58:29;20.40;;;12.63;;
37267;SDS011;23154;52.542;13.362;2022-08-19T12:00:55;23.45;;;14.18;;
37267;SDS011;23154;52.542;13.362;2022-08-19T12:03:21;23.38;;;12.70;;
37267;SDS011;23154;52.542;13.362;2022-08-19T12:05:47;21.05;;;12.85;;
37267;SDS011;23154;52.542;13.362;2022-08-19T12:08:15;20.63;;;12.30;;
37267;SDS011;23154;52.542;13.362;2022-08-19T12:10:41;23.30;;;12.38;;
37267;SDS011;23154;52.542;13.362;2022-08-19T12:13:07;20.45;;;12.75;;
37267;SDS011;23154;52.542;13.362;2022-08-19T12:15:37;20.73;;;12.38;;
37267;SDS011;23154;52.542;13.362;2022-08-19T12:18:06;21.85;;;11.77;;
37267;SDS011;23154;52.542;13.362;2022-08-19T12:20:34;19.50;;;10.73;;
37267;SDS011;23154;52.542;13.362;2022-08-19T12:23:01;19.88;;;11.23;;
37267;SDS011;23154;52.542;13.362;2022-08-19T12:25:27;19.00;;;10.35;;
37267;SDS011;23154;52.542;13.362;2022-08-19T12:27:53;19.75;;;10.95;;
37267;SDS011;23154;52.542;13.362;2022-08-19T12:30:19;18.50;;;10.80;;
37267;SDS011;23154;52.542;13.362;2022-08-19T12:32:45;18.92;;;10.75;;
37267;SDS011;23154;52.542;13.362;2022-08-19T12:35:11;18.90;;;9.85;;
37267;SDS011;23154;52.542;13.362;2022-08-19T12:37:37;17.40;;;9.00;;
37267;SDS011;23154;52.542;13.362;2022-08-19T12:40:03;22.23;;;10.07;;
37267;SDS011;23154;52.542;13.362;2022-08-19T12:42:30;17.75;;;9.93;;
37267;SDS011;23154;52.542;13.362;2022-08-19T12:44:55;20.30;;;9.77;;
37267;SDS011;23154;52.542;13.362;2022-08-19T12:47:21;19.58;;;9.52;;
37267;SDS011;23154;52.542;13.362;2022-08-19T12:49:47;18.00;;;10.27;;
37267;SDS011;23154;52.542;13.362;2022-08-19T12:52:14;19.58;;;10.02;;
37267;SDS011;23154;52.542;13.362;2022-08-19T12:54:41;19.00;;;10.27;;
37267;SDS011;23154;52.542;13.362;2022-08-19T12:57:08;20.38;;;10.60;;
37267;SDS011;23154;52.542;13.362;2022-08-19T12:59:35;22.67;;;10.93;;
37267;SDS011;23154;52.542;13.362;2022-08-19T13:02:03;20.15;;;11.13;;
37267;SDS011;23154;52.542;13.362;2022-08-19T13:04:31;21.42;;;11.77;;
37267;SDS011;23154;52.542;13.362;2022-08-19T13:06:57;19.80;;;11.60;;
37267;SDS011;23154;52.542;13.362;2022-08-19T13:09:24;19.27;;;11.63;;
37267;SDS011;23154;52.542;13.362;2022-08-19T13:11:50;21.60;;;11.15;;
37267;SDS011;23154;52.542;13.362;2022-08-19T13:14:16;24.77;;;11.55;;
37267;SDS011;23154;52.542;13.362;2022-08-19T13:16:42;20.23;;;11.13;;
37267;SDS011;23154;52.542;13.362;2022-08-19T13:19:08;20.00;;;11.05;;
37267;SDS011;23154;52.542;13.362;2022-08-19T13:21:33;20.25;;;11.68;;
37267;SDS011;23154;52.542;13.362;2022-08-19T13:23:59;19.02;;;11.32;;
37267;SDS011;23154;52.542;13.362;2022-08-19T13:26:24;19.10;;;11.90;;
37267;SDS011;23154;52.542;13.362;2022-08-19T13:28:51;19.85;;;11.23;;
37267;SDS011;23154;52.542;13.362;2022-08-19T13:31:36;20.60;;;10.77;;
37267;SDS011;23154;52.542;13.362;2022-08-19T13:34:31;22.60;;;11.20;;
37267;SDS011;23154;52.542;13.362;2022-08-19T13:36:59;19.55;;;10.82;;
37267;SDS011;23154;52.542;13.362;2022-08-19T13:39:28;22.60;;;11.07;;
37267;SDS011;23154;52.542;13.362;2022-08-19T13:41:54;21.38;;;10.60;;
37267;SDS011;23154;52.542;13.362;2022-08-19T13:44:20;21.27;;;11.43;;
37267;SDS011;23154;52.542;13.362;2022-08-19T13:46:47;21.30;;;11.63;;
37267;SDS011;23154;52.542;13.362;2022-08-19T13:49:15;21.52;;;11.88;;
37267;SDS011;23154;52.542;13.362;2022-08-19T13:51:42;22.23;;;12.10;;
37267;SDS011;23154;52.542;13.362;2022-08-19T13:54:09;19.83;;;10.93;;
37267;SDS011;23154;52.542;13.362;2022-08-19T13:56:40;20.20;;;11.25;;
37267;SDS011;23154;52.542;13.362;2022-08-19T13:59:07;21.30;;;11.48;;
37267;SDS011;23154;52.542;13.362;2022-08-19T14:01:33;18.75;;;10.98;;
37267;SDS011;23154;52.542;13.362;2022-08-19T14:03:59;21.67;;;11.18;;
37267;SDS011;23154;52.542;13.362;2022-08-19T14:06:25;22.17;;;12.00;;
37267;SDS011;23154;52.542;13.362;2022-08-19T14:08:51;20.55;;;11.95;;
37267;SDS011;23154;52.542;13.362;2022-08-19T14:11:17;19.02;;;11.15;;
37267;SDS011;23154;52.542;13.362;2022-08-19T14:13:43;20.50;;;11.20;;
37267;SDS011;23154;52.542;13.362;2022-08-19T14:16:09;22.38;;;11.43;;
37267;SDS011;23154;52.542;13.362;2022-08-19T14:18:37;19.75;;;10.77;;
37267;SDS011;23154;52.542;13.362;2022-08-19T14:21:04;20.73;;;11.07;;
37267;SDS011;23154;52.542;13.362;2022-08-19T14:23:30;19.27;;;11.30;;
37267;SDS011;23154;52.542;13.362;2022-08-19T14:26:04;21.30;;;11.13;;
37267;SDS011;23154;52.542;13.362;2022-08-19T14:28:33;20.27;;;11.70;;
37267;SDS011;23154;52.542;13.362;2022-08-19T14:30:59;22.40;;;11.27;;
37267;SDS011;23154;52.542;13.362;2022-08-19T14:33:25;20.60;;;11.18;;